sensor_id;sensor_type;location;lat;lon;timestamp;P1;durP1;ratioP1;P2;durP2;ratioP2
16579;SDS011;8402;51.466;6.806;2023-03-14T00:00:25;6.03;;;1.17;;
16579;SDS011;8402;51.466;6.806;2023-03-14T00:02:55;3.97;;;1.13;;
16579;SDS011;8402;51.466;6.806;2023-03-14T00:05:25;4.93;;;1.53;;
16579;SDS011;8402;51.466;6.806;2023-03-14T00:07:55;7.33;;;1.40;;
16579;SDS011;8402;51.466;6.806;2023-03-14T00:10:25;3.67;;;1.40;;
16579;SDS011;8402;51.466;6.806;2023-03-14T00:12:57;3.50;;;1.33;;
16579;SDS011;8402;51.466;6.806;2023-03-14T00:15:29;5.37;;;1.30;;
16579;SDS011;8402;51.466;6.806;2023-03-14T00:17:59;8.27;;;1.63;;
16579;SDS011;8402;51.466;6.806;2023-03-14T00:20:29;6.77;;;1.57;;
16579;SDS011;8402;51.466;6.806;2023-03-14T00:22:59;6.53;;;1.57;;
16579;SDS011;8402;51.466;6.806;2023-03-14T00:25:29;6.47;;;1.40;;
16579;SDS011;8402;51.466;6.806;2023-03-14T00:28:02;5.77;;;1.60;;
16579;SDS011;8402;51.466;6.806;2023-03-14T00:30:32;11.83;;;1.80;;
16579;SDS011;8402;51.466;6.806;2023-03-14T00:33:02;5.97;;;1.57;;
16579;SDS011;8402;51.466;6.806;2023-03-14T00:35:32;5.97;;;1.53;;
16579;SDS011;8402;51.466;6.806;2023-03-14T00:38:02;6.50;;;1.77;;
16579;SDS011;8402;51.466;6.806;2023-03-14T00:40:32;4.40;;;1.13;;
16579;SDS011;8402;51.466;6.806;2023-03-14T00:43:04;4.53;;;1.20;;
16579;SDS011;8402;51.466;6.806;2023-03-14T00:45:34;4.43;;;1.33;;
16579;SDS011;8402;51.466;6.806;2023-03-14T00:48:04;6.20;;;1.50;;
16579;SDS011;8402;51.466;6.806;2023-03-14T00:50:34;5.43;;;1.30;;
16579;SDS011;8402;51.466;6.806;2023-03-14T00:53:03;4.53;;;1.20;;
16579;SDS011;8402;51.466;6.806;2023-03-14T00:55:35;3.97;;;1.20;;
16579;SDS011;8402;51.466;6.806;2023-03-14T00:58:09;8.10;;;1.77;;
16579;SDS011;8402;51.466;6.806;2023-03-14T01:00:39;7.63;;;1.00;;
16579;SDS011;8402;51.466;6.806;2023-03-14T01:03:10;6.43;;;1.30;;
16579;SDS011;8402;51.466;6.806;2023-03-14T01:05:40;6.00;;;1.13;;
16579;SDS011;8402;51.466;6.806;2023-03-14T01:08:10;4.37;;;0.97;;
16579;SDS011;8402;51.466;6.806;2023-03-14T01:10:40;5.03;;;1.00;;
16579;SDS011;8402;51.466;6.806;2023-03-14T01:13:13;3.73;;;0.90;;
16579;SDS011;8402;51.466;6.806;2023-03-14T01:15:43;8.17;;;1.30;;
16579;SDS011;8402;51.466;6.806;2023-03-14T01:18:13;5.83;;;1.00;;
16579;SDS011;8402;51.466;6.806;2023-03-14T01:20:43;8.00;;;1.43;;
16579;SDS011;8402;51.466;6.806;2023-03-14T01:23:12;8.73;;;1.10;;
16579;SDS011;8402;51.466;6.806;2023-03-14T01:25:42;5.67;;;1.07;;
16579;SDS011;8402;51.466;6.806;2023-03-14T01:28:15;7.30;;;0.80;;
16579;SDS011;8402;51.466;6.806;2023-03-14T01:30:45;4.53;;;0.97;;
16579;SDS011;8402;51.466;6.806;2023-03-14T01:33:15;6.47;;;1.10;;
16579;SDS011;8402;51.466;6.806;2023-03-14T01:35:45;5.93;;;1.10;;
16579;SDS011;8402;51.466;6.806;2023-03-14T01:38:15;6.00;;;1.00;;
16579;SDS011;8402;51.466;6.806;2023-03-14T01:40:45;9.30;;;1.27;;
16579;SDS011;8402;51.466;6.806;2023-03-14T01:43:18;6.13;;;1.13;;
16579;SDS011;8402;51.466;6.806;2023-03-14T01:48:58;8.80;;;1.80;;
16579;SDS011;8402;51.466;6.806;2023-03-14T01:51:34;4.90;;;1.17;;
16579;SDS011;8402;51.466;6.806;2023-03-14T01:54:10;8.57;;;1.77;;
16579;SDS011;8402;51.466;6.806;2023-03-14T01:56:46;5.43;;;1.50;;
16579;SDS011;8402;51.466;6.806;2023-03-14T01:59:22;7.33;;;2.00;;
16579;SDS011;8402;51.466;6.806;2023-03-14T02:01:53;10.27;;;1.97;;
16579;SDS011;8402;51.466;6.806;2023-03-14T02:04:25;7.30;;;2.03;;
16579;SDS011;8402;51.466;6.806;2023-03-14T02:07:00;9.77;;;1.93;;
16579;SDS011;8402;51.466;6.806;2023-03-14T02:09:35;7.53;;;2.00;;
16579;SDS011;8402;51.466;6.806;2023-03-14T02:12:06;4.17;;;1.80;;
16579;SDS011;8402;51.466;6.806;2023-03-14T02:14:41;6.20;;;2.07;;
16579;SDS011;8402;51.466;6.806;2023-03-14T02:17:14;7.60;;;1.60;;
16579;SDS011;8402;51.466;6.806;2023-03-14T02:19:50;6.40;;;1.60;;
16579;SDS011;8402;51.466;6.806;2023-03-14T02:22:33;4.00;;;1.73;;
16579;SDS011;8402;51.466;6.806;2023-03-14T02:25:06;6.07;;;1.63;;
16579;SDS011;8402;51.466;6.806;2023-03-14T02:27:41;5.27;;;1.10;;
16579;SDS011;8402;51.466;6.806;2023-03-14T02:30:13;6.23;;;1.30;;
16579;SDS011;8402;51.466;6.806;2023-03-14T02:32:47;6.00;;;1.40;;
16579;SDS011;8402;51.466;6.806;2023-03-14T02:35:22;5.93;;;1.63;;
16579;SDS011;8402;51.466;6.806;2023-03-14T02:37:55;8.07;;;2.20;;
16579;SDS011;8402;51.466;6.806;2023-03-14T02:40:29;11.70;;;2.00;;
16579;SDS011;8402;51.466;6.806;2023-03-14T02:43:01;9.70;;;2.07;;
16579;SDS011;8402;51.466;6.806;2023-03-14T02:45:39;10.70;;;1.67;;
16579;SDS011;8402;51.466;6.806;2023-03-14T02:48:14;5.70;;;1.53;;
16579;SDS011;8402;51.466;6.806;2023-03-14T02:50:47;7.63;;;1.30;;
16579;SDS011;8402;51.466;6.806;2023-03-14T02:53:20;5.17;;;1.20;;
16579;SDS011;8402;51.466;6.806;2023-03-14T02:55:53;7.43;;;1.70;;
16579;SDS011;8402;51.466;6.806;2023-03-14T02:58:26;3.63;;;1.00;;
16579;SDS011;8402;51.466;6.806;2023-03-14T03:00:57;11.27;;;1.60;;
16579;SDS011;8402;51.466;6.806;2023-03-14T03:03:26;4.97;;;1.10;;
16579;SDS011;8402;51.466;6.806;2023-03-14T03:05:57;10.13;;;1.40;;
16579;SDS011;8402;51.466;6.806;2023-03-14T03:08:27;13.30;;;1.47;;
16579;SDS011;8402;51.466;6.806;2023-03-14T03:10:58;6.33;;;1.10;;
16579;SDS011;8402;51.466;6.806;2023-03-14T03:13:31;6.17;;;1.03;;
16579;SDS011;8402;51.466;6.806;2023-03-14T03:16:00;2.93;;;1.00;;
16579;SDS011;8402;51.466;6.806;2023-03-14T03:18:31;5.47;;;0.90;;
16579;SDS011;8402;51.466;6.806;2023-03-14T03:21:01;1.80;;;0.60;;
16579;SDS011;8402;51.466;6.806;2023-03-14T03:23:32;6.77;;;1.20;;
16579;SDS011;8402;51.466;6.806;2023-03-14T03:26:04;4.90;;;0.83;;
16579;SDS011;8402;51.466;6.806;2023-03-14T03:28:37;8.57;;;1.37;;
16579;SDS011;8402;51.466;6.806;2023-03-14T03:31:07;4.57;;;0.90;;
16579;SDS011;8402;51.466;6.806;2023-03-14T03:33:38;6.37;;;1.00;;
16579;SDS011;8402;51.466;6.806;2023-03-14T03:36:09;4.00;;;0.93;;
16579;SDS011;8402;51.466;6.806;2023-03-14T03:38:39;7.10;;;1.40;;
16579;SDS011;8402;51.466;6.806;2023-03-14T03:41:09;7.90;;;1.03;;
16579;SDS011;8402;51.466;6.806;2023-03-14T03:43:41;4.93;;;0.87;;
16579;SDS011;8402;51.466;6.806;2023-03-14T03:46:11;7.20;;;1.00;;
16579;SDS011;8402;51.466;6.806;2023-03-14T03:48:41;4.57;;;1.07;;
16579;SDS011;8402;51.466;6.806;2023-03-14T03:51:12;6.03;;;1.20;;
16579;SDS011;8402;51.466;6.806;2023-03-14T03:53:42;6.37;;;1.53;;
16579;SDS011;8402;51.466;6.806;2023-03-14T03:56:12;6.07;;;1.70;;
16579;SDS011;8402;51.466;6.806;2023-03-14T03:58:45;8.40;;;1.60;;
16579;SDS011;8402;51.466;6.806;2023-03-14T04:01:15;5.17;;;1.07;;
16579;SDS011;8402;51.466;6.806;2023-03-14T04:03:45;7.70;;;1.40;;
16579;SDS011;8402;51.466;6.806;2023-03-14T04:06:15;5.43;;;1.10;;
16579;SDS011;8402;51.466;6.806;2023-03-14T04:08:45;3.63;;;0.90;;
16579;SDS011;8402;51.466;6.806;2023-03-14T04:11:15;5.03;;;1.00;;
16579;SDS011;8402;51.466;6.806;2023-03-14T04:13:47;4.17;;;0.90;;
16579;SDS011;8402;51.466;6.806;2023-03-14T04:16:18;3.70;;;0.93;;
16579;SDS011;8402;51.466;6.806;2023-03-14T04:18:50;5.10;;;1.20;;
16579;SDS011;8402;51.466;6.806;2023-03-14T04:21:20;6.03;;;1.60;;
16579;SDS011;8402;51.466;6.806;2023-03-14T04:23:50;8.77;;;1.47;;
16579;SDS011;8402;51.466;6.806;2023-03-14T04:26:20;4.83;;;1.50;;
16579;SDS011;8402;51.466;6.806;2023-03-14T04:28:53;4.20;;;1.27;;
16579;SDS011;8402;51.466;6.806;2023-03-14T04:31:22;4.30;;;1.03;;
16579;SDS011;8402;51.466;6.806;2023-03-14T04:33:54;4.43;;;0.80;;
16579;SDS011;8402;51.466;6.806;2023-03-14T04:36:24;4.80;;;0.83;;
16579;SDS011;8402;51.466;6.806;2023-03-14T04:38:54;2.97;;;1.07;;
16579;SDS011;8402;51.466;6.806;2023-03-14T04:41:24;2.90;;;0.90;;
16579;SDS011;8402;51.466;6.806;2023-03-14T04:43:56;2.50;;;0.70;;
16579;SDS011;8402;51.466;6.806;2023-03-14T04:46:26;2.47;;;0.60;;
16579;SDS011;8402;51.466;6.806;2023-03-14T04:48:56;4.10;;;0.97;;
16579;SDS011;8402;51.466;6.806;2023-03-14T04:51:27;5.10;;;0.70;;
16579;SDS011;8402;51.466;6.806;2023-03-14T04:53:57;1.57;;;0.47;;
16579;SDS011;8402;51.466;6.806;2023-03-14T04:56:27;2.30;;;0.60;;
16579;SDS011;8402;51.466;6.806;2023-03-14T04:59:01;4.37;;;0.73;;
16579;SDS011;8402;51.466;6.806;2023-03-14T05:01:31;2.43;;;0.60;;
16579;SDS011;8402;51.466;6.806;2023-03-14T05:04:01;2.97;;;0.83;;
16579;SDS011;8402;51.466;6.806;2023-03-14T05:06:31;1.47;;;0.70;;
16579;SDS011;8402;51.466;6.806;2023-03-14T05:09:01;2.57;;;1.20;;
16579;SDS011;8402;51.466;6.806;2023-03-14T05:11:31;5.60;;;1.73;;
16579;SDS011;8402;51.466;6.806;2023-03-14T05:14:04;4.77;;;1.60;;
16579;SDS011;8402;51.466;6.806;2023-03-14T05:16:34;4.87;;;1.70;;
16579;SDS011;8402;51.466;6.806;2023-03-14T05:19:04;3.80;;;1.70;;
16579;SDS011;8402;51.466;6.806;2023-03-14T05:21:34;7.13;;;1.30;;
16579;SDS011;8402;51.466;6.806;2023-03-14T05:24:04;2.33;;;1.10;;
16579;SDS011;8402;51.466;6.806;2023-03-14T05:26:34;3.00;;;1.23;;
16579;SDS011;8402;51.466;6.806;2023-03-14T05:29:06;2.67;;;1.27;;
16579;SDS011;8402;51.466;6.806;2023-03-14T05:31:36;6.40;;;1.10;;
16579;SDS011;8402;51.466;6.806;2023-03-14T05:34:06;3.93;;;0.70;;
16579;SDS011;8402;51.466;6.806;2023-03-14T05:36:36;2.63;;;0.73;;
16579;SDS011;8402;51.466;6.806;2023-03-14T05:39:07;1.33;;;0.60;;
16579;SDS011;8402;51.466;6.806;2023-03-14T05:41:37;1.67;;;0.83;;
16579;SDS011;8402;51.466;6.806;2023-03-14T05:44:09;5.47;;;0.70;;
16579;SDS011;8402;51.466;6.806;2023-03-14T05:46:39;2.97;;;0.87;;
16579;SDS011;8402;51.466;6.806;2023-03-14T05:49:09;2.40;;;0.80;;
16579;SDS011;8402;51.466;6.806;2023-03-14T05:51:39;2.33;;;1.10;;
16579;SDS011;8402;51.466;6.806;2023-03-14T05:54:08;2.97;;;1.50;;
16579;SDS011;8402;51.466;6.806;2023-03-14T05:56:38;6.90;;;2.00;;
16579;SDS011;8402;51.466;6.806;2023-03-14T05:59:10;3.73;;;1.93;;
16579;SDS011;8402;51.466;6.806;2023-03-14T06:01:41;5.23;;;2.33;;
16579;SDS011;8402;51.466;6.806;2023-03-14T06:04:11;9.67;;;3.13;;
16579;SDS011;8402;51.466;6.806;2023-03-14T06:06:41;8.83;;;2.80;;
16579;SDS011;8402;51.466;6.806;2023-03-14T06:09:10;9.00;;;2.23;;
16579;SDS011;8402;51.466;6.806;2023-03-14T06:11:40;3.30;;;1.50;;
16579;SDS011;8402;51.466;6.806;2023-03-14T06:14:13;3.77;;;1.50;;
16579;SDS011;8402;51.466;6.806;2023-03-14T06:16:43;8.60;;;1.10;;
16579;SDS011;8402;51.466;6.806;2023-03-14T06:19:14;1.93;;;1.17;;
16579;SDS011;8402;51.466;6.806;2023-03-14T06:21:44;3.97;;;1.00;;
16579;SDS011;8402;51.466;6.806;2023-03-14T06:24:14;7.03;;;1.40;;
16579;SDS011;8402;51.466;6.806;2023-03-14T06:26:45;3.60;;;1.30;;
16579;SDS011;8402;51.466;6.806;2023-03-14T06:29:18;8.90;;;1.60;;
16579;SDS011;8402;51.466;6.806;2023-03-14T06:31:48;3.73;;;1.27;;
16579;SDS011;8402;51.466;6.806;2023-03-14T06:34:17;5.37;;;1.30;;
16579;SDS011;8402;51.466;6.806;2023-03-14T06:36:47;2.40;;;1.57;;
16579;SDS011;8402;51.466;6.806;2023-03-14T06:39:17;3.00;;;0.90;;
16579;SDS011;8402;51.466;6.806;2023-03-14T06:41:47;2.10;;;1.10;;
16579;SDS011;8402;51.466;6.806;2023-03-14T06:44:19;1.70;;;0.80;;
16579;SDS011;8402;51.466;6.806;2023-03-14T06:46:49;1.87;;;0.70;;
16579;SDS011;8402;51.466;6.806;2023-03-14T06:49:20;2.57;;;0.70;;
16579;SDS011;8402;51.466;6.806;2023-03-14T06:51:50;3.53;;;1.00;;
16579;SDS011;8402;51.466;6.806;2023-03-14T06:54:20;2.47;;;0.57;;
16579;SDS011;8402;51.466;6.806;2023-03-14T06:56:50;1.53;;;0.70;;
16579;SDS011;8402;51.466;6.806;2023-03-14T06:59:22;0.97;;;0.50;;
16579;SDS011;8402;51.466;6.806;2023-03-14T07:01:52;2.37;;;0.60;;
16579;SDS011;8402;51.466;6.806;2023-03-14T07:04:22;2.00;;;0.70;;
16579;SDS011;8402;51.466;6.806;2023-03-14T07:06:52;0.93;;;0.50;;
16579;SDS011;8402;51.466;6.806;2023-03-14T07:09:22;0.67;;;0.40;;
16579;SDS011;8402;51.466;6.806;2023-03-14T07:11:52;1.57;;;0.50;;
16579;SDS011;8402;51.466;6.806;2023-03-14T07:14:24;0.90;;;0.50;;
16579;SDS011;8402;51.466;6.806;2023-03-14T07:16:54;0.90;;;0.50;;
16579;SDS011;8402;51.466;6.806;2023-03-14T07:19:24;1.33;;;0.60;;
16579;SDS011;8402;51.466;6.806;2023-03-14T07:21:54;2.10;;;0.30;;
16579;SDS011;8402;51.466;6.806;2023-03-14T07:24:24;2.87;;;0.60;;
16579;SDS011;8402;51.466;6.806;2023-03-14T07:26:53;1.77;;;0.70;;
16579;SDS011;8402;51.466;6.806;2023-03-14T07:29:26;1.10;;;0.60;;
16579;SDS011;8402;51.466;6.806;2023-03-14T07:31:56;0.90;;;0.50;;
16579;SDS011;8402;51.466;6.806;2023-03-14T07:34:25;1.97;;;0.73;;
16579;SDS011;8402;51.466;6.806;2023-03-14T07:36:56;2.27;;;0.93;;
16579;SDS011;8402;51.466;6.806;2023-03-14T07:39:26;3.20;;;0.70;;
16579;SDS011;8402;51.466;6.806;2023-03-14T07:41:56;1.93;;;0.80;;
16579;SDS011;8402;51.466;6.806;2023-03-14T07:44:29;2.03;;;0.83;;
16579;SDS011;8402;51.466;6.806;2023-03-14T07:46:58;0.90;;;0.67;;
16579;SDS011;8402;51.466;6.806;2023-03-14T07:49:29;1.27;;;0.73;;
16579;SDS011;8402;51.466;6.806;2023-03-14T07:51:59;1.93;;;0.70;;
16579;SDS011;8402;51.466;6.806;2023-03-14T07:54:29;2.70;;;1.00;;
16579;SDS011;8402;51.466;6.806;2023-03-14T07:56:58;2.90;;;1.20;;
16579;SDS011;8402;51.466;6.806;2023-03-14T07:59:31;2.77;;;0.90;;
16579;SDS011;8402;51.466;6.806;2023-03-14T08:02:01;2.13;;;1.03;;
16579;SDS011;8402;51.466;6.806;2023-03-14T08:04:32;3.67;;;1.30;;
16579;SDS011;8402;51.466;6.806;2023-03-14T08:07:03;3.97;;;1.47;;
16579;SDS011;8402;51.466;6.806;2023-03-14T08:09:32;4.23;;;1.60;;
16579;SDS011;8402;51.466;6.806;2023-03-14T08:12:02;4.87;;;2.00;;
16579;SDS011;8402;51.466;6.806;2023-03-14T08:14:35;6.57;;;2.37;;
16579;SDS011;8402;51.466;6.806;2023-03-14T08:17:05;9.83;;;2.67;;
16579;SDS011;8402;51.466;6.806;2023-03-14T08:19:35;5.93;;;2.47;;
16579;SDS011;8402;51.466;6.806;2023-03-14T08:22:05;7.87;;;3.20;;
16579;SDS011;8402;51.466;6.806;2023-03-14T08:24:35;5.03;;;2.77;;
16579;SDS011;8402;51.466;6.806;2023-03-14T08:27:05;4.17;;;2.43;;
16579;SDS011;8402;51.466;6.806;2023-03-14T08:29:39;6.67;;;3.17;;
16579;SDS011;8402;51.466;6.806;2023-03-14T08:32:10;6.53;;;2.93;;
16579;SDS011;8402;51.466;6.806;2023-03-14T08:34:40;6.93;;;3.47;;
16579;SDS011;8402;51.466;6.806;2023-03-14T08:37:11;8.43;;;3.70;;
16579;SDS011;8402;51.466;6.806;2023-03-14T08:39:52;7.03;;;3.90;;
16579;SDS011;8402;51.466;6.806;2023-03-14T08:42:23;6.13;;;2.40;;
16579;SDS011;8402;51.466;6.806;2023-03-14T08:44:55;4.23;;;2.60;;
16579;SDS011;8402;51.466;6.806;2023-03-14T08:47:25;5.90;;;3.10;;
16579;SDS011;8402;51.466;6.806;2023-03-14T08:49:55;7.37;;;2.60;;
16579;SDS011;8402;51.466;6.806;2023-03-14T08:52:25;5.27;;;2.70;;
16579;SDS011;8402;51.466;6.806;2023-03-14T08:54:57;6.13;;;2.13;;
16579;SDS011;8402;51.466;6.806;2023-03-14T08:57:28;2.97;;;1.33;;
16579;SDS011;8402;51.466;6.806;2023-03-14T09:00:00;2.67;;;0.87;;
16579;SDS011;8402;51.466;6.806;2023-03-14T09:02:31;2.23;;;1.03;;
16579;SDS011;8402;51.466;6.806;2023-03-14T09:05:01;1.60;;;0.90;;
16579;SDS011;8402;51.466;6.806;2023-03-14T09:07:31;1.27;;;0.80;;
16579;SDS011;8402;51.466;6.806;2023-03-14T09:10:02;1.37;;;0.60;;
16579;SDS011;8402;51.466;6.806;2023-03-14T09:12:32;6.47;;;1.00;;
16579;SDS011;8402;51.466;6.806;2023-03-14T09:15:06;5.10;;;0.60;;
16579;SDS011;8402;51.466;6.806;2023-03-14T09:17:36;0.77;;;0.50;;
16579;SDS011;8402;51.466;6.806;2023-03-14T09:20:07;1.03;;;0.37;;
16579;SDS011;8402;51.466;6.806;2023-03-14T09:22:38;1.03;;;0.50;;
16579;SDS011;8402;51.466;6.806;2023-03-14T09:25:08;2.87;;;0.67;;
16579;SDS011;8402;51.466;6.806;2023-03-14T09:27:38;1.63;;;0.87;;
16579;SDS011;8402;51.466;6.806;2023-03-14T09:30:11;1.53;;;0.70;;
16579;SDS011;8402;51.466;6.806;2023-03-14T09:32:42;2.47;;;1.10;;
16579;SDS011;8402;51.466;6.806;2023-03-14T09:35:12;3.93;;;1.00;;
16579;SDS011;8402;51.466;6.806;2023-03-14T09:37:42;1.47;;;0.80;;
16579;SDS011;8402;51.466;6.806;2023-03-14T09:40:14;1.37;;;0.80;;
16579;SDS011;8402;51.466;6.806;2023-03-14T09:42:47;1.60;;;0.93;;
16579;SDS011;8402;51.466;6.806;2023-03-14T09:45:23;2.30;;;1.03;;
16579;SDS011;8402;51.466;6.806;2023-03-14T09:47:56;2.67;;;1.57;;
16579;SDS011;8402;51.466;6.806;2023-03-14T09:50:30;1.17;;;0.97;;
16579;SDS011;8402;51.466;6.806;2023-03-14T09:53:06;4.67;;;1.23;;
16579;SDS011;8402;51.466;6.806;2023-03-14T09:55:42;2.13;;;1.23;;
16579;SDS011;8402;51.466;6.806;2023-03-14T09:58:16;1.47;;;1.20;;
16579;SDS011;8402;51.466;6.806;2023-03-14T10:00:52;4.27;;;1.77;;
16579;SDS011;8402;51.466;6.806;2023-03-14T10:03:26;2.57;;;1.60;;
16579;SDS011;8402;51.466;6.806;2023-03-14T10:06:00;6.57;;;2.30;;
16579;SDS011;8402;51.466;6.806;2023-03-14T10:08:31;5.70;;;2.10;;
16579;SDS011;8402;51.466;6.806;2023-03-14T10:11:01;8.97;;;2.20;;
16579;SDS011;8402;51.466;6.806;2023-03-14T10:13:31;7.17;;;2.00;;
16579;SDS011;8402;51.466;6.806;2023-03-14T10:16:04;5.47;;;1.97;;
16579;SDS011;8402;51.466;6.806;2023-03-14T10:18:35;3.83;;;2.20;;
16579;SDS011;8402;51.466;6.806;2023-03-14T10:21:05;4.77;;;1.83;;
16579;SDS011;8402;51.466;6.806;2023-03-14T10:23:46;8.13;;;2.67;;
16579;SDS011;8402;51.466;6.806;2023-03-14T10:26:16;4.97;;;2.23;;
16579;SDS011;8402;51.466;6.806;2023-03-14T10:28:48;3.43;;;1.50;;
16579;SDS011;8402;51.466;6.806;2023-03-14T10:31:26;3.17;;;1.80;;
16579;SDS011;8402;51.466;6.806;2023-03-14T10:33:59;3.43;;;1.20;;
16579;SDS011;8402;51.466;6.806;2023-03-14T10:36:31;4.37;;;0.90;;
16579;SDS011;8402;51.466;6.806;2023-03-14T10:39:15;1.67;;;0.40;;
16579;SDS011;8402;51.466;6.806;2023-03-14T10:41:54;3.43;;;0.70;;
16579;SDS011;8402;51.466;6.806;2023-03-14T10:44:30;3.27;;;0.80;;
16579;SDS011;8402;51.466;6.806;2023-03-14T10:47:04;2.13;;;0.90;;
16579;SDS011;8402;51.466;6.806;2023-03-14T10:49:35;2.40;;;0.90;;
16579;SDS011;8402;51.466;6.806;2023-03-14T10:52:13;2.13;;;0.60;;
16579;SDS011;8402;51.466;6.806;2023-03-14T10:55:09;3.83;;;0.60;;
16579;SDS011;8402;51.466;6.806;2023-03-14T10:57:40;2.10;;;0.53;;
16579;SDS011;8402;51.466;6.806;2023-03-14T11:00:13;0.83;;;0.43;;
16579;SDS011;8402;51.466;6.806;2023-03-14T11:02:53;2.53;;;0.60;;
16579;SDS011;8402;51.466;6.806;2023-03-14T11:05:34;2.10;;;0.67;;
16579;SDS011;8402;51.466;6.806;2023-03-14T11:08:11;3.27;;;0.63;;
16579;SDS011;8402;51.466;6.806;2023-03-14T11:10:50;2.47;;;0.70;;
16579;SDS011;8402;51.466;6.806;2023-03-14T11:13:23;1.33;;;0.43;;
16579;SDS011;8402;51.466;6.806;2023-03-14T11:16:02;1.57;;;0.47;;
16579;SDS011;8402;51.466;6.806;2023-03-14T11:18:53;1.43;;;0.60;;
16579;SDS011;8402;51.466;6.806;2023-03-14T11:21:33;4.57;;;0.60;;
16579;SDS011;8402;51.466;6.806;2023-03-14T11:24:17;1.23;;;0.60;;
16579;SDS011;8402;51.466;6.806;2023-03-14T11:27:03;1.27;;;0.40;;
16579;SDS011;8402;51.466;6.806;2023-03-14T11:29:40;9.03;;;0.80;;
16579;SDS011;8402;51.466;6.806;2023-03-14T11:32:13;0.90;;;0.60;;
16579;SDS011;8402;51.466;6.806;2023-03-14T11:34:52;3.10;;;0.93;;
16579;SDS011;8402;51.466;6.806;2023-03-14T11:37:24;1.07;;;0.53;;
16579;SDS011;8402;51.466;6.806;2023-03-14T11:39:59;0.77;;;0.40;;
16579;SDS011;8402;51.466;6.806;2023-03-14T11:42:34;2.23;;;0.87;;
16579;SDS011;8402;51.466;6.806;2023-03-14T11:45:05;0.70;;;0.37;;
16579;SDS011;8402;51.466;6.806;2023-03-14T11:47:47;3.07;;;0.50;;
16579;SDS011;8402;51.466;6.806;2023-03-14T11:50:25;1.97;;;0.50;;
16579;SDS011;8402;51.466;6.806;2023-03-14T11:53:01;5.90;;;0.70;;
16579;SDS011;8402;51.466;6.806;2023-03-14T11:55:39;2.67;;;0.90;;
16579;SDS011;8402;51.466;6.806;2023-03-14T11:58:12;1.50;;;0.80;;
16579;SDS011;8402;51.466;6.806;2023-03-14T12:00:47;2.67;;;1.03;;
16579;SDS011;8402;51.466;6.806;2023-03-14T12:03:21;2.83;;;0.73;;
16579;SDS011;8402;51.466;6.806;2023-03-14T12:06:05;1.87;;;0.50;;
16579;SDS011;8402;51.466;6.806;2023-03-14T12:08:46;2.07;;;0.73;;
16579;SDS011;8402;51.466;6.806;2023-03-14T12:11:25;2.53;;;0.77;;
16579;SDS011;8402;51.466;6.806;2023-03-14T12:14:02;2.10;;;0.53;;
16579;SDS011;8402;51.466;6.806;2023-03-14T12:16:46;8.03;;;1.13;;
16579;SDS011;8402;51.466;6.806;2023-03-14T12:19:27;3.03;;;0.70;;
16579;SDS011;8402;51.466;6.806;2023-03-14T12:22:17;3.73;;;0.80;;
16579;SDS011;8402;51.466;6.806;2023-03-14T12:24:54;5.10;;;1.00;;
16579;SDS011;8402;51.466;6.806;2023-03-14T12:27:41;6.13;;;0.83;;
16579;SDS011;8402;51.466;6.806;2023-03-14T12:30:18;3.03;;;0.73;;
16579;SDS011;8402;51.466;6.806;2023-03-14T12:39:24;7.33;;;1.40;;
16579;SDS011;8402;51.466;6.806;2023-03-14T12:42:04;5.20;;;0.83;;
16579;SDS011;8402;51.466;6.806;2023-03-14T12:44:39;2.87;;;0.93;;
16579;SDS011;8402;51.466;6.806;2023-03-14T12:50:26;4.47;;;1.10;;
16579;SDS011;8402;51.466;6.806;2023-03-14T12:53:10;6.20;;;1.10;;
16579;SDS011;8402;51.466;6.806;2023-03-14T12:56:07;6.17;;;1.60;;
16579;SDS011;8402;51.466;6.806;2023-03-14T12:58:47;7.20;;;1.17;;
16579;SDS011;8402;51.466;6.806;2023-03-14T13:01:27;8.27;;;1.00;;
16579;SDS011;8402;51.466;6.806;2023-03-14T13:03:57;6.80;;;1.60;;
16579;SDS011;8402;51.466;6.806;2023-03-14T13:06:50;21.40;;;1.73;;
16579;SDS011;8402;51.466;6.806;2023-03-14T13:12:27;5.87;;;1.07;;
16579;SDS011;8402;51.466;6.806;2023-03-14T13:14:59;7.30;;;1.50;;
16579;SDS011;8402;51.466;6.806;2023-03-14T13:17:32;5.17;;;0.93;;
16579;SDS011;8402;51.466;6.806;2023-03-14T13:20:05;10.20;;;1.30;;
16579;SDS011;8402;51.466;6.806;2023-03-14T13:22:45;7.67;;;1.40;;
16579;SDS011;8402;51.466;6.806;2023-03-14T13:25:20;15.17;;;1.53;;
16579;SDS011;8402;51.466;6.806;2023-03-14T13:27:54;8.17;;;1.63;;
16579;SDS011;8402;51.466;6.806;2023-03-14T13:30:25;14.77;;;2.00;;
16579;SDS011;8402;51.466;6.806;2023-03-14T13:32:57;7.17;;;1.63;;
16579;SDS011;8402;51.466;6.806;2023-03-14T13:35:38;11.97;;;1.60;;
16579;SDS011;8402;51.466;6.806;2023-03-14T13:38:15;15.03;;;2.20;;
16579;SDS011;8402;51.466;6.806;2023-03-14T13:40:47;10.40;;;1.70;;
16579;SDS011;8402;51.466;6.806;2023-03-14T13:43:23;9.50;;;1.27;;
16579;SDS011;8402;51.466;6.806;2023-03-14T13:46:03;9.97;;;1.77;;
16579;SDS011;8402;51.466;6.806;2023-03-14T13:48:34;14.07;;;1.80;;
16579;SDS011;8402;51.466;6.806;2023-03-14T13:51:09;8.03;;;1.70;;
16579;SDS011;8402;51.466;6.806;2023-03-14T13:53:43;19.03;;;1.60;;
16579;SDS011;8402;51.466;6.806;2023-03-14T13:56:14;5.43;;;1.60;;
16579;SDS011;8402;51.466;6.806;2023-03-14T13:58:47;8.10;;;1.97;;
16579;SDS011;8402;51.466;6.806;2023-03-14T14:01:19;9.80;;;2.20;;
16579;SDS011;8402;51.466;6.806;2023-03-14T14:03:52;12.47;;;1.70;;
16579;SDS011;8402;51.466;6.806;2023-03-14T14:06:29;7.77;;;1.60;;
16579;SDS011;8402;51.466;6.806;2023-03-14T14:09:01;9.43;;;1.70;;
16579;SDS011;8402;51.466;6.806;2023-03-14T14:11:40;6.60;;;1.60;;
16579;SDS011;8402;51.466;6.806;2023-03-14T14:14:35;10.53;;;1.27;;
16579;SDS011;8402;51.466;6.806;2023-03-14T14:17:10;7.67;;;0.93;;
16579;SDS011;8402;51.466;6.806;2023-03-14T14:19:44;6.83;;;1.17;;
16579;SDS011;8402;51.466;6.806;2023-03-14T14:22:16;5.83;;;1.17;;
16579;SDS011;8402;51.466;6.806;2023-03-14T14:24:46;13.00;;;1.70;;
16579;SDS011;8402;51.466;6.806;2023-03-14T14:27:19;8.43;;;1.20;;
16579;SDS011;8402;51.466;6.806;2023-03-14T14:30:00;5.77;;;1.23;;
16579;SDS011;8402;51.466;6.806;2023-03-14T14:32:36;7.93;;;1.17;;
16579;SDS011;8402;51.466;6.806;2023-03-14T14:35:08;6.20;;;0.90;;
16579;SDS011;8402;51.466;6.806;2023-03-14T14:37:51;7.13;;;1.30;;
16579;SDS011;8402;51.466;6.806;2023-03-14T14:40:22;4.50;;;1.17;;
16579;SDS011;8402;51.466;6.806;2023-03-14T14:42:54;7.20;;;0.80;;
16579;SDS011;8402;51.466;6.806;2023-03-14T14:45:33;8.77;;;1.27;;
16579;SDS011;8402;51.466;6.806;2023-03-14T14:48:05;6.73;;;1.07;;
16579;SDS011;8402;51.466;6.806;2023-03-14T14:50:39;5.03;;;1.07;;
16579;SDS011;8402;51.466;6.806;2023-03-14T14:53:19;11.90;;;1.40;;
16579;SDS011;8402;51.466;6.806;2023-03-14T14:55:53;11.50;;;1.40;;
16579;SDS011;8402;51.466;6.806;2023-03-14T14:58:25;8.47;;;1.07;;
16579;SDS011;8402;51.466;6.806;2023-03-14T15:01:02;5.03;;;1.10;;
16579;SDS011;8402;51.466;6.806;2023-03-14T15:03:34;6.13;;;1.07;;
16579;SDS011;8402;51.466;6.806;2023-03-14T15:06:04;2.30;;;0.60;;
16579;SDS011;8402;51.466;6.806;2023-03-14T15:08:37;2.23;;;0.97;;
16579;SDS011;8402;51.466;6.806;2023-03-14T15:11:08;4.63;;;1.00;;
16579;SDS011;8402;51.466;6.806;2023-03-14T15:13:45;4.73;;;1.10;;
16579;SDS011;8402;51.466;6.806;2023-03-14T15:16:18;7.27;;;1.10;;
16579;SDS011;8402;51.466;6.806;2023-03-14T15:18:52;4.40;;;0.90;;
16579;SDS011;8402;51.466;6.806;2023-03-14T15:21:24;7.30;;;1.00;;
16579;SDS011;8402;51.466;6.806;2023-03-14T15:23:55;4.37;;;0.60;;
16579;SDS011;8402;51.466;6.806;2023-03-14T15:26:26;3.60;;;0.60;;
16579;SDS011;8402;51.466;6.806;2023-03-14T15:28:56;2.87;;;0.70;;
16579;SDS011;8402;51.466;6.806;2023-03-14T15:31:29;5.23;;;0.70;;
16579;SDS011;8402;51.466;6.806;2023-03-14T15:33:59;6.37;;;1.00;;
16579;SDS011;8402;51.466;6.806;2023-03-14T15:36:30;7.37;;;1.23;;
16579;SDS011;8402;51.466;6.806;2023-03-14T15:39:02;2.73;;;0.80;;
16579;SDS011;8402;51.466;6.806;2023-03-14T15:41:34;2.50;;;0.70;;
16579;SDS011;8402;51.466;6.806;2023-03-14T15:44:04;8.63;;;1.40;;
16579;SDS011;8402;51.466;6.806;2023-03-14T15:46:36;6.60;;;0.83;;
16579;SDS011;8402;51.466;6.806;2023-03-14T15:49:07;3.60;;;1.00;;